createdAt,value
2023-05-11T00:00:35.336Z,97994.97
2023-05-11T00:03:01.890Z,97995.88
2023-05-11T00:05:28.539Z,97990.69
2023-05-11T00:07:54.959Z,97997.56
2023-05-11T00:10:21.540Z,97995.88
2023-05-11T00:12:47.920Z,97992.56
2023-05-11T00:15:14.519Z,97990.97
2023-05-11T00:17:40.961Z,97992.81
2023-05-11T00:20:08.094Z,97990.28
2023-05-11T00:22:34.558Z,97989.28
2023-05-11T00:25:01.066Z,97990.97
2023-05-11T00:27:27.603Z,97985.06
2023-05-11T00:29:54.113Z,97982.47
2023-05-11T00:32:20.830Z,97983.34
2023-05-11T00:34:47.316Z,97982.47
2023-05-11T00:37:13.780Z,97986.00
2023-05-11T00:39:40.658Z,97986.13
2023-05-11T00:42:07.377Z,97982.03
2023-05-11T00:44:33.856Z,97986.41
2023-05-11T00:47:00.582Z,97976.19
2023-05-11T00:49:27.695Z,97972.91
2023-05-11T00:51:54.275Z,97973.88
2023-05-11T00:54:21.231Z,97970.44
2023-05-11T00:56:48.527Z,97976.63
2023-05-11T00:59:15.274Z,97977.53
2023-05-11T01:01:41.989Z,97975.69
2023-05-11T01:04:09.076Z,97977.41
2023-05-11T01:06:51.152Z,97986.91
2023-05-11T01:09:32.172Z,97979.22
2023-05-11T01:12:20.551Z,97978.31
2023-05-11T01:15:22.465Z,97979.97
2023-05-11T01:18:08.963Z,97976.63
2023-05-11T01:20:35.954Z,97985.38
2023-05-11T01:23:10.623Z,97975.06
2023-05-11T01:25:49.231Z,97976.88
2023-05-11T01:28:29.395Z,97977.13
2023-05-11T01:31:05.660Z,97986.56
2023-05-11T01:33:35.265Z,97980.59
2023-05-11T01:36:06.262Z,97976.31
2023-05-11T01:38:35.858Z,97977.22
2023-05-11T01:41:10.118Z,97969.59
2023-05-11T01:43:39.841Z,97978.13
2023-05-11T01:46:09.114Z,97972.28
2023-05-11T01:48:39.741Z,97978.41
2023-05-11T01:51:09.005Z,97980.09
2023-05-11T01:53:37.845Z,97980.09
2023-05-11T01:56:06.222Z,97979.31
2023-05-11T01:58:33.554Z,97978.50
2023-05-11T02:01:03.190Z,97978.50
2023-05-11T02:03:32.915Z,97980.25
2023-05-11T02:06:01.090Z,97975.09
2023-05-11T02:08:31.191Z,97977.75
2023-05-11T02:10:59.231Z,97983.78
2023-05-11T02:13:27.637Z,97982.06
2023-05-11T02:15:56.266Z,97984.66
2023-05-11T02:18:22.819Z,97978.63
2023-05-11T02:20:50.633Z,97976.03
2023-05-11T02:23:18.204Z,97976.00
2023-05-11T02:25:45.077Z,97985.59
2023-05-11T02:28:11.634Z,97979.50
2023-05-11T02:30:48.387Z,97981.22
2023-05-11T02:33:21.423Z,97982.97
2023-05-11T02:35:50.314Z,97981.31
2023-05-11T02:38:18.447Z,97977.91
2023-05-11T02:40:48.313Z,97977.09
2023-05-11T02:43:21.770Z,97975.34
2023-05-11T02:45:52.646Z,97973.59
2023-05-11T02:48:29.138Z,97972.63
2023-05-11T02:50:56.831Z,97967.59
2023-05-11T02:53:27.664Z,97976.56
2023-05-11T02:55:57.940Z,97968.84
2023-05-11T02:58:24.877Z,97972.31
2023-05-11T03:00:51.668Z,97970.63
2023-05-11T03:03:18.652Z,97964.78
2023-05-11T03:05:45.898Z,97968.16
2023-05-11T03:08:12.568Z,97961.50
2023-05-11T03:10:39.978Z,97977.00
2023-05-11T03:13:08.780Z,97972.81
2023-05-11T03:15:36.838Z,97968.59
2023-05-11T03:18:05.856Z,97974.66
2023-05-11T03:20:36.095Z,97974.66
2023-05-11T03:23:03.790Z,97976.47
2023-05-11T03:25:30.376Z,97975.88
2023-05-11T03:27:58.468Z,97974.09
2023-05-11T03:30:26.264Z,97970.72
2023-05-11T03:32:52.884Z,97968.19
2023-05-11T03:35:20.230Z,97968.03
2023-05-11T03:37:49.208Z,97968.94
2023-05-11T03:40:19.834Z,97968.03
2023-05-11T03:42:47.087Z,97971.53
2023-05-11T03:45:17.109Z,97966.38
2023-05-11T03:47:45.173Z,97975.78
2023-05-11T03:50:12.868Z,97965.44
2023-05-11T03:52:40.159Z,97969.66
2023-05-11T03:55:07.494Z,97965.41
2023-05-11T03:57:34.543Z,97968.78
2023-05-11T04:00:00.969Z,97959.22
2023-05-11T04:02:27.629Z,97961.63
2023-05-11T04:04:54.175Z,97958.22
2023-05-11T04:07:20.845Z,97957.41
2023-05-11T04:09:47.309Z,97954.88
2023-05-11T04:12:13.783Z,97958.28
2023-05-11T04:14:40.289Z,97959.22
2023-05-11T04:17:06.724Z,97957.41
2023-05-11T04:19:33.283Z,97953.78
2023-05-11T04:21:59.769Z,97957.00
2023-05-11T04:24:26.216Z,97955.25
2023-05-11T04:26:56.537Z,97954.47
2023-05-11T04:29:22.984Z,97955.25
2023-05-11T04:31:49.540Z,97956.09
2023-05-11T04:34:16.686Z,97951.00
2023-05-11T04:36:43.235Z,97950.31
2023-05-11T04:39:09.883Z,97952.91
2023-05-11T04:41:36.288Z,97953.75
2023-05-11T04:44:02.712Z,97957.06
2023-05-11T04:46:29.281Z,97965.91
2023-05-11T04:48:55.795Z,97958.00
2023-05-11T04:51:22.283Z,97962.94
2023-05-11T04:53:48.778Z,97966.38
2023-05-11T04:56:15.426Z,97967.09
2023-05-11T04:58:41.820Z,97972.00
2023-05-11T05:01:08.296Z,97968.66
2023-05-11T05:03:34.857Z,97970.16
2023-05-11T05:06:01.273Z,97965.53
2023-05-11T05:08:27.692Z,97968.69
2023-05-11T05:10:54.172Z,97969.38
2023-05-11T05:13:20.720Z,97963.72
2023-05-11T05:15:47.214Z,97966.00
2023-05-11T05:18:13.705Z,97968.06
2023-05-11T05:20:40.220Z,97969.50
2023-05-11T05:23:06.768Z,97980.19
2023-05-11T05:25:33.285Z,97982.69
2023-05-11T05:27:59.690Z,97983.38
2023-05-11T05:30:26.201Z,97984.81
2023-05-11T05:32:52.826Z,97984.00
2023-05-11T05:35:19.330Z,97983.94
2023-05-11T05:37:45.807Z,97984.38
2023-05-11T05:40:12.376Z,97984.31
2023-05-11T05:42:38.854Z,97989.72
2023-05-11T05:45:05.668Z,97987.38
2023-05-11T05:47:32.192Z,97997.16
2023-05-11T05:49:58.580Z,97990.69
2023-05-11T05:52:25.093Z,97995.00
2023-05-11T05:54:51.561Z,97996.53
2023-05-11T05:57:17.981Z,98002.81
2023-05-11T05:59:44.429Z,97996.91
2023-05-11T06:02:13.117Z,97997.53
2023-05-11T06:04:39.635Z,97994.06
2023-05-11T06:07:06.192Z,97999.16
2023-05-11T06:09:32.596Z,97992.31
2023-05-11T06:11:59.016Z,98006.91
2023-05-11T06:14:25.615Z,98005.88
2023-05-11T06:16:53.706Z,98006.53
2023-05-11T06:19:20.133Z,98005.09
2023-05-11T06:21:48.051Z,98005.03
2023-05-11T06:24:14.686Z,98006.78
2023-05-11T06:26:41.142Z,98000.31
2023-05-11T06:29:08.046Z,98006.47
2023-05-11T06:31:34.641Z,98006.72
2023-05-11T06:34:01.077Z,98007.59
2023-05-11T06:36:27.527Z,98008.16
2023-05-11T06:38:53.934Z,98003.16
2023-05-11T06:41:21.253Z,98002.44
2023-05-11T06:43:47.750Z,98004.38
2023-05-11T06:46:17.560Z,98000.63
2023-05-11T06:48:44.088Z,97998.78
2023-05-11T06:51:11.646Z,98001.25
2023-05-11T06:53:38.712Z,98004.53
2023-05-11T06:56:05.452Z,98006.19
2023-05-11T06:58:31.991Z,98003.41
2023-05-11T07:00:58.539Z,98006.34
2023-05-11T07:03:25.021Z,97997.09
2023-05-11T07:05:51.809Z,98003.75
2023-05-11T07:08:18.291Z,98003.78
2023-05-11T07:10:44.717Z,98003.69
2023-05-11T07:13:11.170Z,98002.66
2023-05-11T07:15:37.590Z,98008.91
2023-05-11T07:18:04.315Z,98010.63
2023-05-11T07:20:31.181Z,98014.56
2023-05-11T07:23:01.450Z,98010.28
2023-05-11T07:25:28.506Z,98012.03
2023-05-11T07:27:54.960Z,98020.38
2023-05-11T07:30:21.848Z,98017.16
2023-05-11T07:32:48.809Z,98012.34
2023-05-11T07:35:15.411Z,98007.13
2023-05-11T07:37:42.170Z,98014.88
2023-05-11T07:40:09.324Z,98010.75
2023-05-11T07:42:35.792Z,98017.41
2023-05-11T07:45:02.201Z,98013.94
2023-05-11T07:47:28.717Z,98017.28
2023-05-11T07:49:55.133Z,98014.94
2023-05-11T07:52:21.544Z,98016.41
2023-05-11T07:54:47.946Z,98022.25
2023-05-11T07:57:14.396Z,98016.19
2023-05-11T07:59:41.082Z,98014.50
2023-05-11T08:02:11.458Z,98014.81
2023-05-11T08:04:39.486Z,98011.38
2023-05-11T08:07:05.920Z,98019.91
2023-05-11T08:09:32.582Z,98018.88
2023-05-11T08:12:01.604Z,98015.34
2023-05-11T08:14:28.268Z,98018.53
2023-05-11T08:16:54.841Z,98016.78
2023-05-11T08:19:21.411Z,98014.97
2023-05-11T08:21:47.923Z,98011.41
2023-05-11T08:24:14.368Z,98017.38
2023-05-11T08:26:40.766Z,98012.22
2023-05-11T08:29:07.653Z,98018.22
2023-05-11T08:31:34.204Z,98015.69
2023-05-11T08:34:00.816Z,98017.56
2023-05-11T08:36:27.547Z,98008.13
2023-05-11T08:38:57.290Z,98019.28
2023-05-11T08:41:25.897Z,98018.34
2023-05-11T08:43:52.787Z,98019.91
2023-05-11T08:47:18.874Z,98016.16
2023-05-11T08:49:47.454Z,98018.44
2023-05-11T08:52:16.144Z,98016.66
2023-05-11T08:54:42.548Z,98020.13
2023-05-11T08:57:10.598Z,98020.25
2023-05-11T08:59:38.017Z,98021.00
2023-05-11T09:02:06.255Z,98019.31
2023-05-11T09:04:34.532Z,98023.22
2023-05-11T09:07:01.187Z,98026.38
2023-05-11T09:09:27.741Z,98018.56
2023-05-11T09:11:55.207Z,98019.44
2023-05-11T09:14:26.928Z,98015.72
2023-05-11T09:16:53.834Z,98019.25
2023-05-11T09:19:20.916Z,98022.03
2023-05-11T09:21:52.476Z,98015.16
2023-05-11T09:24:21.118Z,98014.16
2023-05-11T09:26:48.043Z,98013.38
2023-05-11T09:29:15.930Z,98023.00
2023-05-11T09:31:44.293Z,98012.53
2023-05-11T09:34:14.057Z,98009.50
2023-05-11T09:36:47.815Z,98008.97
2023-05-11T09:39:16.808Z,98013.50
2023-05-11T09:41:43.617Z,98016.16
2023-05-11T09:44:12.570Z,98014.09
2023-05-11T09:46:43.151Z,98011.63
2023-05-11T09:49:10.932Z,98013.97
2023-05-11T09:51:40.420Z,98007.38
2023-05-11T09:54:18.147Z,98006.03
2023-05-11T09:56:56.706Z,98006.66
2023-05-11T09:59:40.306Z,98005.75
2023-05-11T10:02:24.755Z,98004.44
2023-05-11T10:04:53.972Z,98002.81
2023-05-11T10:07:25.001Z,98007.47
2023-05-11T10:09:54.380Z,98007.84
2023-05-11T10:12:23.131Z,98005.78
2023-05-11T10:14:52.724Z,98000.44
2023-05-11T10:17:19.539Z,98004.34
2023-05-11T10:19:49.587Z,98006.97
2023-05-11T10:22:19.475Z,97997.06
2023-05-11T10:24:46.760Z,97998.63
2023-05-11T10:27:13.568Z,97998.13
2023-05-11T10:29:40.486Z,98001.75
2023-05-11T10:32:08.624Z,97990.38
2023-05-11T10:34:41.160Z,97991.88
2023-05-11T10:37:13.528Z,97991.06
2023-05-11T10:39:40.953Z,97982.34
2023-05-11T10:42:25.797Z,97985.69
2023-05-11T10:45:09.024Z,97981.69
2023-05-11T10:47:57.059Z,97984.91
2023-05-11T10:50:51.289Z,97972.75
2023-05-11T10:53:55.465Z,97974.16
2023-05-11T10:56:37.370Z,97971.47
2023-05-11T11:00:05.684Z,97976.38
2023-05-11T11:02:32.365Z,97983.50
2023-05-11T11:05:02.180Z,97976.25
2023-05-11T11:07:28.848Z,97977.44
2023-05-11T11:10:00.806Z,97978.91
2023-05-11T11:12:32.077Z,97970.16
2023-05-11T11:15:00.707Z,97977.03
2023-05-11T11:17:32.373Z,97971.19
2023-05-11T11:20:01.389Z,97974.84
2023-05-11T11:22:41.192Z,97970.88
2023-05-11T11:25:09.647Z,97966.38
2023-05-11T11:27:45.313Z,97963.31
2023-05-11T11:30:24.435Z,97971.84
2023-05-11T11:33:15.315Z,97970.44
2023-05-11T11:35:42.171Z,97971.88
2023-05-11T11:38:11.628Z,97962.81
2023-05-11T11:40:49.565Z,97968.94
2023-05-11T11:43:22.080Z,97977.97
2023-05-11T11:45:59.938Z,97973.81
2023-05-11T11:48:31.191Z,97965.72
2023-05-11T11:51:09.242Z,97976.28
2023-05-11T11:53:40.884Z,97975.88
2023-05-11T11:56:16.950Z,97972.44
2023-05-11T11:58:43.514Z,97973.50
2023-05-11T12:01:18.607Z,97973.38
2023-05-11T12:03:47.188Z,97970.69
2023-05-11T12:06:14.845Z,97967.75
2023-05-11T12:08:44.166Z,97978.19
2023-05-11T12:11:10.660Z,97971.53
2023-05-11T12:13:40.332Z,97976.63
2023-05-11T12:16:17.252Z,97973.66
2023-05-11T12:18:53.545Z,97977.69
2023-05-11T12:21:23.642Z,97966.72
2023-05-11T12:24:01.653Z,97972.66
2023-05-11T12:26:29.967Z,97975.75
2023-05-11T12:29:08.283Z,97978.03
2023-05-11T12:31:39.578Z,97976.16
2023-05-11T12:34:06.357Z,97970.13
2023-05-11T12:36:34.466Z,97971.81
2023-05-11T12:39:00.959Z,97977.34
2023-05-11T12:41:27.453Z,97966.03
2023-05-11T12:43:55.306Z,97963.59
2023-05-11T12:46:23.291Z,97966.03
2023-05-11T12:48:51.366Z,97966.97
2023-05-11T12:51:45.715Z,97967.81
2023-05-11T12:54:12.289Z,97964.09
2023-05-11T12:56:46.327Z,97973.06
2023-05-11T12:59:25.770Z,97973.06
2023-05-11T13:01:52.474Z,97964.88
2023-05-11T13:04:28.787Z,97966.31
2023-05-11T13:06:55.516Z,97966.19
2023-05-11T13:09:25.937Z,97969.78
2023-05-11T13:12:19.023Z,97967.03
2023-05-11T13:14:47.745Z,97964.25
2023-05-11T13:17:29.666Z,97960.75
2023-05-11T13:19:56.137Z,97955.34
2023-05-11T13:22:22.585Z,97963.66
2023-05-11T13:24:50.969Z,97955.28
2023-05-11T13:27:17.374Z,97955.13
2023-05-11T13:29:43.965Z,97951.06
2023-05-11T13:32:10.527Z,97965.63
2023-05-11T13:34:37.815Z,97954.16
2023-05-11T13:37:04.455Z,97953.03
2023-05-11T13:39:31.110Z,97955.91
2023-05-11T13:41:58.626Z,97951.50
2023-05-11T13:44:25.149Z,97958.47
2023-05-11T13:46:51.669Z,97951.75
2023-05-11T13:49:18.127Z,97958.25
2023-05-11T13:51:44.616Z,97964.63
2023-05-11T13:54:11.622Z,97961.94
2023-05-11T13:56:38.067Z,97957.47
2023-05-11T13:59:04.600Z,97961.47
2023-05-11T14:01:31.083Z,97955.81
2023-05-11T14:03:57.553Z,97951.50
2023-05-11T14:06:25.635Z,97943.16
2023-05-11T14:08:52.919Z,97940.59
2023-05-11T14:11:19.335Z,97945.81
2023-05-11T14:13:45.754Z,97949.38
2023-05-11T14:16:12.669Z,97956.59
2023-05-11T14:18:39.266Z,97957.78
2023-05-11T14:21:05.808Z,97954.81
2023-05-11T14:23:32.302Z,97953.19
2023-05-11T14:25:58.797Z,97949.78
2023-05-11T14:28:25.338Z,97949.84
2023-05-11T14:30:51.818Z,97953.31
2023-05-11T14:33:18.235Z,97956.91
2023-05-11T14:35:45.600Z,97960.53
2023-05-11T14:38:12.120Z,97955.56
2023-05-11T14:40:38.543Z,97953.41
2023-05-11T14:43:05.008Z,97957.66
2023-05-11T14:45:32.498Z,97958.13
2023-05-11T14:47:59.305Z,97953.63
2023-05-11T14:50:25.778Z,97953.91
2023-05-11T14:52:52.316Z,97942.31
2023-05-11T14:55:18.987Z,97949.59
2023-05-11T14:57:45.608Z,97934.94
2023-05-11T15:00:13.290Z,97946.41
2023-05-11T15:02:39.833Z,97943.69
2023-05-11T15:05:06.949Z,97946.88
2023-05-11T15:07:34.535Z,97948.13
2023-05-11T15:10:04.461Z,97950.41
2023-05-11T15:12:31.001Z,97941.44
2023-05-11T15:14:57.439Z,97948.00
2023-05-11T15:17:23.905Z,97949.84
2023-05-11T15:19:50.554Z,97955.03
2023-05-11T15:22:17.458Z,97949.13
2023-05-11T15:24:43.970Z,97948.94
2023-05-11T15:27:10.527Z,97956.78
2023-05-11T15:29:37.048Z,97948.72
2023-05-11T15:32:03.658Z,97952.34
2023-05-11T15:34:30.282Z,97948.28
2023-05-11T15:36:58.648Z,97958.28
2023-05-11T15:39:25.064Z,97967.56
2023-05-11T15:41:51.566Z,97976.38
2023-05-11T15:44:17.952Z,97967.56
2023-05-11T15:46:44.366Z,97966.00
2023-05-11T15:49:10.858Z,97959.72
2023-05-11T15:51:37.290Z,97961.59
2023-05-11T15:54:03.936Z,97960.94
2023-05-11T15:56:30.389Z,97962.97
2023-05-11T15:58:56.878Z,97965.28
2023-05-11T16:01:24.072Z,97964.28
2023-05-11T16:03:50.803Z,97970.06
2023-05-11T16:06:17.348Z,97966.47
2023-05-11T16:08:44.863Z,97969.72
2023-05-11T16:11:11.643Z,97966.88
2023-05-11T16:13:38.027Z,97971.13
2023-05-11T16:16:04.715Z,97973.59
2023-05-11T16:18:31.162Z,97976.34
2023-05-11T16:20:57.677Z,97973.81
2023-05-11T16:23:25.387Z,97974.16
2023-05-11T16:25:52.377Z,97979.91
2023-05-11T16:28:18.822Z,97975.50
2023-05-11T16:30:45.247Z,97981.47
2023-05-11T16:33:11.767Z,97977.19
2023-05-11T16:35:38.551Z,97982.56
2023-05-11T16:38:06.011Z,97984.28
2023-05-11T16:40:34.849Z,97980.47
2023-05-11T16:43:01.448Z,97979.78
2023-05-11T16:45:27.931Z,97988.16
2023-05-11T16:47:54.432Z,97989.25
2023-05-11T16:50:21.069Z,97982.81
2023-05-11T16:52:48.754Z,97981.94
2023-05-11T16:55:16.095Z,97986.34
2023-05-11T16:57:44.462Z,97978.97
2023-05-11T17:00:12.176Z,97983.81
2023-05-11T17:02:38.719Z,97980.59
2023-05-11T17:05:15.649Z,97989.69
2023-05-11T17:07:44.778Z,97982.66
2023-05-11T17:10:11.440Z,97978.34
2023-05-11T17:12:37.874Z,97990.22
2023-05-11T17:15:09.504Z,97987.44
2023-05-11T17:17:40.312Z,97984.88
2023-05-11T17:20:07.955Z,97989.81
2023-05-11T17:22:35.126Z,97992.41
2023-05-11T17:25:04.720Z,97990.97
2023-05-11T17:27:31.697Z,97997.41
2023-05-11T17:29:58.456Z,97992.88
2023-05-11T17:32:25.189Z,97989.59
2023-05-11T17:34:51.871Z,98003.78
2023-05-11T17:37:30.567Z,97997.72
2023-05-11T17:39:57.455Z,98001.44
2023-05-11T17:42:23.893Z,98002.69
2023-05-11T17:44:50.419Z,98008.28
2023-05-11T17:47:21.250Z,98008.69
2023-05-11T17:49:50.891Z,98010.38
2023-05-11T17:52:17.372Z,98005.84
2023-05-11T17:54:43.985Z,98019.75
2023-05-11T17:57:10.556Z,98017.50
2023-05-11T17:59:37.032Z,98025.81
2023-05-11T18:02:03.980Z,98022.56
2023-05-11T18:04:30.965Z,98021.66
2023-05-11T18:06:57.551Z,98031.88
2023-05-11T18:09:24.115Z,98028.06
2023-05-11T18:11:50.762Z,98028.88
2023-05-11T18:14:18.227Z,98030.75
2023-05-11T18:16:44.724Z,98038.38
2023-05-11T18:19:11.244Z,98029.63
2023-05-11T18:21:38.054Z,98034.69
2023-05-11T18:24:05.117Z,98035.78
2023-05-11T18:26:31.803Z,98036.69
2023-05-11T18:29:02.377Z,98036.56
2023-05-11T18:31:29.525Z,98035.91
2023-05-11T18:33:58.166Z,98048.13
2023-05-11T18:36:24.808Z,98040.53
2023-05-11T18:38:51.612Z,98044.06
2023-05-11T18:41:23.409Z,98046.69
2023-05-11T18:43:50.294Z,98047.56
2023-05-11T18:46:16.953Z,98037.97
2023-05-11T18:48:43.598Z,98050.16
2023-05-11T18:51:11.053Z,98046.66
2023-05-11T18:53:37.658Z,98045.16
2023-05-11T18:56:04.328Z,98051.47
2023-05-11T18:58:30.891Z,98054.00
2023-05-11T19:00:57.518Z,98054.00
2023-05-11T19:03:24.283Z,98058.28
2023-05-11T19:05:50.970Z,98064.41
2023-05-11T19:08:17.603Z,98062.88
2023-05-11T19:10:45.525Z,98068.22
2023-05-11T19:13:13.257Z,98077.66
2023-05-11T19:15:40.309Z,98080.41
2023-05-11T19:18:07.165Z,98079.56
2023-05-11T19:20:34.730Z,98080.13
2023-05-11T19:23:01.574Z,98085.72
2023-05-11T19:25:28.653Z,98085.00
2023-05-11T19:27:57.347Z,98090.97
2023-05-11T19:30:24.768Z,98093.53
2023-05-11T19:32:51.514Z,98089.38
2023-05-11T19:35:19.101Z,98090.25
2023-05-11T19:37:48.279Z,98091.22
2023-05-11T19:43:05.396Z,98099.03
2023-05-11T19:45:33.257Z,98099.84
2023-05-11T19:48:02.108Z,98093.03
2023-05-11T19:50:28.902Z,98098.91
2023-05-11T19:52:58.644Z,98098.91
2023-05-11T19:55:32.459Z,98101.38
2023-05-11T19:58:04.361Z,98097.94
2023-05-11T20:03:29.642Z,98107.38
2023-05-11T20:05:59.447Z,98105.72
2023-05-11T20:08:26.137Z,98104.78
2023-05-11T20:10:52.661Z,98108.19
2023-05-11T20:13:19.105Z,98110.84
2023-05-11T20:15:46.889Z,98114.28
2023-05-11T20:18:13.312Z,98103.97
2023-05-11T20:20:39.845Z,98105.72
2023-05-11T20:23:06.502Z,98109.94
2023-05-11T20:25:33.169Z,98107.41
2023-05-11T20:27:59.669Z,98109.84
2023-05-11T20:30:26.214Z,98104.91
2023-05-11T20:35:22.843Z,98110.00
2023-05-11T20:37:49.305Z,98109.75
2023-05-11T20:40:16.133Z,98114.84
2023-05-11T20:42:42.623Z,98110.72
2023-05-11T20:45:09.601Z,98104.91
2023-05-11T20:50:24.598Z,98105.94
2023-05-11T20:52:51.262Z,98105.88
2023-05-11T20:55:19.269Z,98105.06
2023-05-11T20:57:46.025Z,98105.00
2023-05-11T21:00:16.006Z,98111.09
2023-05-11T21:02:45.400Z,98104.22
2023-05-11T21:05:12.106Z,98109.34
2023-05-11T21:07:38.541Z,98104.22
2023-05-11T21:10:06.032Z,98106.75
2023-05-11T21:12:32.548Z,98107.53
2023-05-11T21:14:59.142Z,98104.22
2023-05-11T21:17:25.709Z,98105.97
2023-05-11T21:19:52.424Z,98105.25
2023-05-11T21:22:19.270Z,98105.81
2023-05-11T21:24:45.713Z,98103.34
2023-05-11T21:27:15.445Z,98092.25
2023-05-11T21:29:42.018Z,98093.94
2023-05-11T21:32:08.571Z,98098.31
2023-05-11T21:34:35.214Z,98100.09
2023-05-11T21:37:04.916Z,98092.38
2023-05-11T21:39:38.047Z,98098.31
2023-05-11T21:42:05.037Z,98093.97
2023-05-11T21:44:34.127Z,98096.56
2023-05-11T21:47:00.590Z,98093.03
2023-05-11T21:49:27.172Z,98099.00
2023-05-11T21:51:53.772Z,98096.44
2023-05-11T21:54:22.365Z,98100.78
2023-05-11T21:56:53.184Z,98095.53
2023-05-11T21:59:20.190Z,98098.09
2023-05-11T22:01:49.237Z,98098.31
2023-05-11T22:04:15.824Z,98101.81
2023-05-11T22:06:45.137Z,98097.53
2023-05-11T22:09:12.946Z,98099.19
2023-05-11T22:11:39.577Z,98103.41
2023-05-11T22:14:06.584Z,98100.00
2023-05-11T22:16:33.276Z,98100.72
2023-05-11T22:18:59.919Z,98102.72
2023-05-11T22:21:27.981Z,98110.47
2023-05-11T22:23:54.631Z,98098.50
2023-05-11T22:26:21.075Z,98106.19
2023-05-11T22:28:47.702Z,98104.28
2023-05-11T22:31:14.241Z,98103.47
2023-05-11T22:33:41.193Z,98105.00
2023-05-11T22:36:08.511Z,98106.75
2023-05-11T22:38:37.564Z,98104.22
2023-05-11T22:41:05.000Z,98103.47
2023-05-11T22:43:32.013Z,98100.97
2023-05-11T22:45:58.610Z,98110.47
2023-05-11T22:48:25.207Z,98107.81
2023-05-11T22:50:51.784Z,98115.63
2023-05-11T22:53:19.922Z,98101.81
2023-05-11T22:55:47.422Z,98107.03
2023-05-11T22:58:14.228Z,98106.28
2023-05-11T23:00:40.730Z,98103.66
2023-05-11T23:03:08.235Z,98102.69
2023-05-11T23:05:34.872Z,98105.09
2023-05-11T23:08:01.337Z,98101.88
2023-05-11T23:10:28.756Z,98098.50
2023-05-11T23:12:55.985Z,98108.75
2023-05-11T23:15:22.581Z,98103.47
2023-05-11T23:17:49.440Z,98111.25
2023-05-11T23:20:16.835Z,98102.72
2023-05-11T23:22:43.476Z,98105.31
2023-05-11T23:25:13.350Z,98109.69
2023-05-11T23:27:39.941Z,98110.47
2023-05-11T23:30:08.675Z,98107.03
2023-05-11T23:32:35.199Z,98096.72
2023-05-11T23:35:01.687Z,98102.72
2023-05-11T23:37:28.281Z,98102.78
2023-05-11T23:39:55.282Z,98109.53
2023-05-11T23:42:21.996Z,98100.78
2023-05-11T23:44:48.770Z,98101.75
2023-05-11T23:47:19.298Z,98102.69
2023-05-11T23:49:45.822Z,98113.91
2023-05-11T23:52:12.321Z,98103.59
2023-05-11T23:54:41.012Z,98094.22
2023-05-11T23:57:07.698Z,98096.19
2023-05-11T23:59:34.424Z,98089.19
